sensor_id;sensor_type;location;lat;lon;timestamp;P1;durP1;ratioP1;P2;durP2;ratioP2
6280;SDS011;3173;48.204;11.612;2022-09-09T00:00:31;2.87;;;1.50;;
6280;SDS011;3173;48.204;11.612;2022-09-09T00:07:54;4.97;;;1.93;;
6280;SDS011;3173;48.204;11.612;2022-09-09T00:10:37;4.50;;;1.60;;
6280;SDS011;3173;48.204;11.612;2022-09-09T00:15:38;6.37;;;2.30;;
6280;SDS011;3173;48.204;11.612;2022-09-09T00:18:28;2.90;;;1.80;;
6280;SDS011;3173;48.204;11.612;2022-09-09T00:23:25;2.80;;;1.50;;
6280;SDS011;3173;48.204;11.612;2022-09-09T00:31:30;3.60;;;1.60;;
6280;SDS011;3173;48.204;11.612;2022-09-09T00:34:43;5.90;;;1.83;;
6280;SDS011;3173;48.204;11.612;2022-09-09T00:36:43;3.50;;;1.30;;
6280;SDS011;3173;48.204;11.612;2022-09-09T00:39:13;3.40;;;1.77;;
6280;SDS011;3173;48.204;11.612;2022-09-09T00:41:50;7.03;;;1.80;;
6280;SDS011;3173;48.204;11.612;2022-09-09T00:44:23;5.30;;;1.67;;
6280;SDS011;3173;48.204;11.612;2022-09-09T00:54:23;3.07;;;2.43;;
6280;SDS011;3173;48.204;11.612;2022-09-09T00:56:54;2.77;;;1.73;;
6280;SDS011;3173;48.204;11.612;2022-09-09T00:59:34;6.40;;;1.83;;
6280;SDS011;3173;48.204;11.612;2022-09-09T01:02:07;6.27;;;2.23;;
6280;SDS011;3173;48.204;11.612;2022-09-09T01:04:41;3.97;;;2.20;;
6280;SDS011;3173;48.204;11.612;2022-09-09T01:07:16;3.93;;;2.00;;
6280;SDS011;3173;48.204;11.612;2022-09-09T01:09:56;6.20;;;1.70;;
6280;SDS011;3173;48.204;11.612;2022-09-09T01:14:51;5.80;;;1.90;;
6280;SDS011;3173;48.204;11.612;2022-09-09T01:17:32;3.43;;;1.63;;
6280;SDS011;3173;48.204;11.612;2022-09-09T01:22:28;5.33;;;2.00;;
6280;SDS011;3173;48.204;11.612;2022-09-09T01:27:40;4.17;;;1.63;;
6280;SDS011;3173;48.204;11.612;2022-09-09T01:30:10;3.00;;;1.90;;
6280;SDS011;3173;48.204;11.612;2022-09-09T01:35:02;2.50;;;1.80;;
6280;SDS011;3173;48.204;11.612;2022-09-09T01:37:29;2.80;;;1.60;;
6280;SDS011;3173;48.204;11.612;2022-09-09T01:39:55;5.77;;;1.80;;
6280;SDS011;3173;48.204;11.612;2022-09-09T01:42:21;2.43;;;1.70;;
6280;SDS011;3173;48.204;11.612;2022-09-09T01:44:47;2.70;;;1.80;;
6280;SDS011;3173;48.204;11.612;2022-09-09T01:47:14;3.50;;;1.70;;
6280;SDS011;3173;48.204;11.612;2022-09-09T01:49:40;5.50;;;1.60;;
6280;SDS011;3173;48.204;11.612;2022-09-09T01:52:06;3.50;;;2.17;;
6280;SDS011;3173;48.204;11.612;2022-09-09T01:54:33;2.47;;;1.77;;
6280;SDS011;3173;48.204;11.612;2022-09-09T02:07:02;6.33;;;1.70;;
6280;SDS011;3173;48.204;11.612;2022-09-09T02:09:30;3.23;;;1.67;;
6280;SDS011;3173;48.204;11.612;2022-09-09T02:11:59;4.23;;;1.80;;
6280;SDS011;3173;48.204;11.612;2022-09-09T02:14:30;2.60;;;1.50;;
6280;SDS011;3173;48.204;11.612;2022-09-09T02:16:59;4.80;;;1.33;;
6280;SDS011;3173;48.204;11.612;2022-09-09T02:19:29;3.20;;;1.40;;
6280;SDS011;3173;48.204;11.612;2022-09-09T02:21:57;2.67;;;1.50;;
6280;SDS011;3173;48.204;11.612;2022-09-09T02:24:25;2.80;;;1.57;;
6280;SDS011;3173;48.204;11.612;2022-09-09T02:26:52;8.07;;;1.70;;
6280;SDS011;3173;48.204;11.612;2022-09-09T02:29:39;4.17;;;1.57;;
6280;SDS011;3173;48.204;11.612;2022-09-09T02:32:12;3.40;;;1.57;;
6280;SDS011;3173;48.204;11.612;2022-09-09T02:34:40;3.20;;;1.60;;
6280;SDS011;3173;48.204;11.612;2022-09-09T02:37:08;3.53;;;1.87;;
6280;SDS011;3173;48.204;11.612;2022-09-09T02:39:35;9.80;;;1.60;;
6280;SDS011;3173;48.204;11.612;2022-09-09T02:42:01;3.63;;;1.50;;
6280;SDS011;3173;48.204;11.612;2022-09-09T02:44:29;3.00;;;1.70;;
6280;SDS011;3173;48.204;11.612;2022-09-09T02:52:13;2.30;;;1.33;;
6280;SDS011;3173;48.204;11.612;2022-09-09T02:54:41;3.60;;;1.43;;
6280;SDS011;3173;48.204;11.612;2022-09-09T02:57:19;9.60;;;1.63;;
6280;SDS011;3173;48.204;11.612;2022-09-09T02:59:45;4.10;;;1.30;;
6280;SDS011;3173;48.204;11.612;2022-09-09T03:02:12;3.53;;;1.30;;
6280;SDS011;3173;48.204;11.612;2022-09-09T03:04:38;2.90;;;1.53;;
6280;SDS011;3173;48.204;11.612;2022-09-09T03:07:05;7.70;;;1.50;;
6280;SDS011;3173;48.204;11.612;2022-09-09T03:09:31;5.50;;;2.37;;
6280;SDS011;3173;48.204;11.612;2022-09-09T03:12:00;6.50;;;1.83;;
6280;SDS011;3173;48.204;11.612;2022-09-09T03:14:26;4.23;;;1.70;;
6280;SDS011;3173;48.204;11.612;2022-09-09T03:16:52;4.97;;;1.27;;
6280;SDS011;3173;48.204;11.612;2022-09-09T03:19:19;2.60;;;1.50;;
6280;SDS011;3173;48.204;11.612;2022-09-09T03:21:45;1.90;;;1.33;;
6280;SDS011;3173;48.204;11.612;2022-09-09T03:24:11;2.10;;;1.40;;
6280;SDS011;3173;48.204;11.612;2022-09-09T03:26:38;1.90;;;1.20;;
6280;SDS011;3173;48.204;11.612;2022-09-09T03:29:05;4.63;;;1.10;;
6280;SDS011;3173;48.204;11.612;2022-09-09T03:31:32;2.40;;;1.30;;
6280;SDS011;3173;48.204;11.612;2022-09-09T03:33:58;4.03;;;1.47;;
6280;SDS011;3173;48.204;11.612;2022-09-09T03:36:27;2.60;;;1.30;;
6280;SDS011;3173;48.204;11.612;2022-09-09T03:38:53;6.37;;;1.67;;
6280;SDS011;3173;48.204;11.612;2022-09-09T03:41:20;5.00;;;1.43;;
6280;SDS011;3173;48.204;11.612;2022-09-09T03:43:48;2.70;;;1.20;;
6280;SDS011;3173;48.204;11.612;2022-09-09T03:46:14;3.80;;;1.33;;
6280;SDS011;3173;48.204;11.612;2022-09-09T03:48:40;3.00;;;1.20;;
6280;SDS011;3173;48.204;11.612;2022-09-09T03:51:06;5.03;;;1.40;;
6280;SDS011;3173;48.204;11.612;2022-09-09T03:53:32;2.03;;;1.10;;
6280;SDS011;3173;48.204;11.612;2022-09-09T03:55:59;6.00;;;1.33;;
6280;SDS011;3173;48.204;11.612;2022-09-09T03:58:25;2.43;;;1.20;;
6280;SDS011;3173;48.204;11.612;2022-09-09T04:01:02;1.60;;;1.20;;
6280;SDS011;3173;48.204;11.612;2022-09-09T04:03:28;7.43;;;1.20;;
6280;SDS011;3173;48.204;11.612;2022-09-09T04:05:55;1.70;;;1.00;;
6280;SDS011;3173;48.204;11.612;2022-09-09T04:08:21;4.03;;;1.27;;
6280;SDS011;3173;48.204;11.612;2022-09-09T04:10:50;4.60;;;1.20;;
6280;SDS011;3173;48.204;11.612;2022-09-09T04:13:16;3.10;;;1.67;;
6280;SDS011;3173;48.204;11.612;2022-09-09T04:15:43;3.10;;;1.73;;
6280;SDS011;3173;48.204;11.612;2022-09-09T04:18:10;4.83;;;1.17;;
6280;SDS011;3173;48.204;11.612;2022-09-09T04:20:36;2.13;;;1.40;;
6280;SDS011;3173;48.204;11.612;2022-09-09T04:23:02;4.07;;;1.30;;
6280;SDS011;3173;48.204;11.612;2022-09-09T04:25:29;3.43;;;1.10;;
6280;SDS011;3173;48.204;11.612;2022-09-09T04:27:55;3.47;;;1.57;;
6280;SDS011;3173;48.204;11.612;2022-09-09T04:30:21;8.53;;;1.27;;
6280;SDS011;3173;48.204;11.612;2022-09-09T04:32:47;3.20;;;1.50;;
6280;SDS011;3173;48.204;11.612;2022-09-09T04:35:13;3.70;;;1.47;;
6280;SDS011;3173;48.204;11.612;2022-09-09T04:37:39;2.00;;;1.27;;
6280;SDS011;3173;48.204;11.612;2022-09-09T04:40:05;3.90;;;1.30;;
6280;SDS011;3173;48.204;11.612;2022-09-09T04:42:35;3.23;;;1.17;;
6280;SDS011;3173;48.204;11.612;2022-09-09T04:45:01;4.00;;;1.23;;
6280;SDS011;3173;48.204;11.612;2022-09-09T04:47:27;10.20;;;1.77;;
6280;SDS011;3173;48.204;11.612;2022-09-09T04:49:53;3.23;;;1.40;;
6280;SDS011;3173;48.204;11.612;2022-09-09T04:52:19;5.23;;;1.20;;
6280;SDS011;3173;48.204;11.612;2022-09-09T04:54:45;12.10;;;2.07;;
6280;SDS011;3173;48.204;11.612;2022-09-09T04:57:11;4.03;;;1.40;;
6280;SDS011;3173;48.204;11.612;2022-09-09T04:59:38;3.50;;;1.57;;
6280;SDS011;3173;48.204;11.612;2022-09-09T05:02:04;10.83;;;2.03;;
6280;SDS011;3173;48.204;11.612;2022-09-09T05:04:30;2.40;;;1.33;;
6280;SDS011;3173;48.204;11.612;2022-09-09T05:06:56;2.90;;;1.23;;
6280;SDS011;3173;48.204;11.612;2022-09-09T05:09:22;7.50;;;1.83;;
6280;SDS011;3173;48.204;11.612;2022-09-09T05:11:48;5.30;;;1.33;;
6280;SDS011;3173;48.204;11.612;2022-09-09T05:14:14;4.37;;;1.53;;
6280;SDS011;3173;48.204;11.612;2022-09-09T05:16:40;9.97;;;2.37;;
6280;SDS011;3173;48.204;11.612;2022-09-09T05:19:05;2.97;;;1.17;;
6280;SDS011;3173;48.204;11.612;2022-09-09T05:21:33;2.77;;;1.47;;
6280;SDS011;3173;48.204;11.612;2022-09-09T05:23:59;2.60;;;1.37;;
6280;SDS011;3173;48.204;11.612;2022-09-09T05:26:25;7.20;;;1.70;;
6280;SDS011;3173;48.204;11.612;2022-09-09T05:28:51;5.70;;;1.73;;
6280;SDS011;3173;48.204;11.612;2022-09-09T05:31:17;5.33;;;1.67;;
6280;SDS011;3173;48.204;11.612;2022-09-09T05:33:46;2.63;;;1.50;;
6280;SDS011;3173;48.204;11.612;2022-09-09T05:36:14;7.50;;;1.90;;
6280;SDS011;3173;48.204;11.612;2022-09-09T05:38:41;3.03;;;1.97;;
6280;SDS011;3173;48.204;11.612;2022-09-09T05:41:08;2.17;;;1.30;;
6280;SDS011;3173;48.204;11.612;2022-09-09T05:43:36;3.90;;;1.50;;
6280;SDS011;3173;48.204;11.612;2022-09-09T05:46:07;4.90;;;1.20;;
6280;SDS011;3173;48.204;11.612;2022-09-09T05:48:35;3.63;;;1.73;;
6280;SDS011;3173;48.204;11.612;2022-09-09T05:51:04;4.50;;;1.73;;
6280;SDS011;3173;48.204;11.612;2022-09-09T05:53:34;2.73;;;1.60;;
6280;SDS011;3173;48.204;11.612;2022-09-09T05:56:04;8.20;;;1.30;;
6280;SDS011;3173;48.204;11.612;2022-09-09T05:58:37;4.07;;;1.77;;
6280;SDS011;3173;48.204;11.612;2022-09-09T06:01:04;4.40;;;1.83;;
6280;SDS011;3173;48.204;11.612;2022-09-09T06:03:38;7.40;;;2.00;;
6280;SDS011;3173;48.204;11.612;2022-09-09T06:06:06;4.73;;;1.77;;
6280;SDS011;3173;48.204;11.612;2022-09-09T06:08:34;13.20;;;1.33;;
6280;SDS011;3173;48.204;11.612;2022-09-09T06:13:32;5.87;;;1.67;;
6280;SDS011;3173;48.204;11.612;2022-09-09T06:15:58;3.13;;;1.43;;
6280;SDS011;3173;48.204;11.612;2022-09-09T06:18:25;3.20;;;1.20;;
6280;SDS011;3173;48.204;11.612;2022-09-09T06:20:55;4.90;;;1.63;;
6280;SDS011;3173;48.204;11.612;2022-09-09T06:23:29;3.77;;;1.50;;
6280;SDS011;3173;48.204;11.612;2022-09-09T06:26:29;3.83;;;1.40;;
6280;SDS011;3173;48.204;11.612;2022-09-09T06:28:49;4.60;;;1.60;;
6280;SDS011;3173;48.204;11.612;2022-09-09T06:31:16;5.47;;;1.30;;
6280;SDS011;3173;48.204;11.612;2022-09-09T06:33:46;4.53;;;1.20;;
6280;SDS011;3173;48.204;11.612;2022-09-09T06:36:15;2.00;;;1.10;;
6280;SDS011;3173;48.204;11.612;2022-09-09T06:38:43;5.53;;;1.13;;
6280;SDS011;3173;48.204;11.612;2022-09-09T06:41:09;3.00;;;1.23;;
6280;SDS011;3173;48.204;11.612;2022-09-09T06:43:37;2.33;;;1.30;;
6280;SDS011;3173;48.204;11.612;2022-09-09T06:46:06;5.50;;;1.20;;
6280;SDS011;3173;48.204;11.612;2022-09-09T06:48:39;5.97;;;1.13;;
6280;SDS011;3173;48.204;11.612;2022-09-09T06:53:36;1.80;;;1.10;;
6280;SDS011;3173;48.204;11.612;2022-09-09T06:56:25;8.53;;;1.43;;
6280;SDS011;3173;48.204;11.612;2022-09-09T06:58:49;3.77;;;0.97;;
6280;SDS011;3173;48.204;11.612;2022-09-09T07:01:17;8.50;;;2.03;;
6280;SDS011;3173;48.204;11.612;2022-09-09T07:03:46;5.13;;;1.20;;
6280;SDS011;3173;48.204;11.612;2022-09-09T07:06:14;3.57;;;1.00;;
6280;SDS011;3173;48.204;11.612;2022-09-09T07:08:42;3.00;;;1.40;;
6280;SDS011;3173;48.204;11.612;2022-09-09T07:11:09;3.30;;;1.83;;
6280;SDS011;3173;48.204;11.612;2022-09-09T07:13:36;1.50;;;0.90;;
6280;SDS011;3173;48.204;11.612;2022-09-09T07:16:08;7.10;;;0.90;;
6280;SDS011;3173;48.204;11.612;2022-09-09T07:18:35;4.10;;;1.33;;
6280;SDS011;3173;48.204;11.612;2022-09-09T07:21:01;3.53;;;1.00;;
6280;SDS011;3173;48.204;11.612;2022-09-09T07:23:28;2.43;;;1.20;;
6280;SDS011;3173;48.204;11.612;2022-09-09T07:25:54;2.47;;;1.20;;
6280;SDS011;3173;48.204;11.612;2022-09-09T07:28:21;1.90;;;1.30;;
6280;SDS011;3173;48.204;11.612;2022-09-09T07:30:56;2.30;;;1.00;;
6280;SDS011;3173;48.204;11.612;2022-09-09T07:33:23;3.30;;;1.27;;
6280;SDS011;3173;48.204;11.612;2022-09-09T07:35:50;5.37;;;2.27;;
6280;SDS011;3173;48.204;11.612;2022-09-09T07:38:16;3.67;;;1.67;;
6280;SDS011;3173;48.204;11.612;2022-09-09T07:40:42;2.70;;;1.50;;
6280;SDS011;3173;48.204;11.612;2022-09-09T07:43:08;2.63;;;1.23;;
6280;SDS011;3173;48.204;11.612;2022-09-09T07:45:34;6.87;;;2.13;;
6280;SDS011;3173;48.204;11.612;2022-09-09T07:48:00;7.40;;;1.83;;
6280;SDS011;3173;48.204;11.612;2022-09-09T07:50:26;4.70;;;1.20;;
6280;SDS011;3173;48.204;11.612;2022-09-09T07:52:52;2.77;;;1.43;;
6280;SDS011;3173;48.204;11.612;2022-09-09T07:55:18;3.63;;;1.80;;
6280;SDS011;3173;48.204;11.612;2022-09-09T07:57:45;3.53;;;1.60;;
6280;SDS011;3173;48.204;11.612;2022-09-09T08:00:10;2.73;;;1.30;;
6280;SDS011;3173;48.204;11.612;2022-09-09T08:02:37;2.93;;;1.50;;
6280;SDS011;3173;48.204;11.612;2022-09-09T08:05:02;4.30;;;1.70;;
6280;SDS011;3173;48.204;11.612;2022-09-09T08:07:28;4.03;;;1.27;;
6280;SDS011;3173;48.204;11.612;2022-09-09T08:09:54;1.40;;;1.03;;
6280;SDS011;3173;48.204;11.612;2022-09-09T08:12:20;5.13;;;1.53;;
6280;SDS011;3173;48.204;11.612;2022-09-09T08:14:46;4.93;;;1.50;;
6280;SDS011;3173;48.204;11.612;2022-09-09T08:17:13;3.20;;;1.30;;
6280;SDS011;3173;48.204;11.612;2022-09-09T08:19:39;3.10;;;1.40;;
6280;SDS011;3173;48.204;11.612;2022-09-09T08:22:04;3.37;;;1.43;;
6280;SDS011;3173;48.204;11.612;2022-09-09T08:24:30;2.70;;;1.30;;
6280;SDS011;3173;48.204;11.612;2022-09-09T08:26:55;3.17;;;1.30;;
6280;SDS011;3173;48.204;11.612;2022-09-09T08:29:22;4.07;;;1.70;;
6280;SDS011;3173;48.204;11.612;2022-09-09T08:31:49;2.27;;;1.20;;
6280;SDS011;3173;48.204;11.612;2022-09-09T08:34:16;3.10;;;1.67;;
6280;SDS011;3173;48.204;11.612;2022-09-09T08:36:44;3.90;;;1.30;;
6280;SDS011;3173;48.204;11.612;2022-09-09T08:39:12;8.67;;;1.60;;
6280;SDS011;3173;48.204;11.612;2022-09-09T08:44:49;4.17;;;1.50;;
6280;SDS011;3173;48.204;11.612;2022-09-09T08:55:52;3.73;;;1.50;;
6280;SDS011;3173;48.204;11.612;2022-09-09T08:58:39;5.60;;;2.20;;
6280;SDS011;3173;48.204;11.612;2022-09-09T09:04:12;3.73;;;1.83;;
6280;SDS011;3173;48.204;11.612;2022-09-09T09:06:59;3.80;;;1.70;;
6280;SDS011;3173;48.204;11.612;2022-09-09T09:09:55;6.43;;;1.60;;
6280;SDS011;3173;48.204;11.612;2022-09-09T09:12:29;3.50;;;1.60;;
6280;SDS011;3173;48.204;11.612;2022-09-09T09:15:00;3.13;;;1.67;;
6280;SDS011;3173;48.204;11.612;2022-09-09T09:17:26;3.17;;;1.50;;
6280;SDS011;3173;48.204;11.612;2022-09-09T09:19:57;5.07;;;1.60;;
6280;SDS011;3173;48.204;11.612;2022-09-09T09:27:55;3.50;;;1.63;;
6280;SDS011;3173;48.204;11.612;2022-09-09T09:30:34;2.90;;;1.50;;
6280;SDS011;3173;48.204;11.612;2022-09-09T09:35:30;3.37;;;1.80;;
6280;SDS011;3173;48.204;11.612;2022-09-09T09:37:55;4.03;;;1.83;;
6280;SDS011;3173;48.204;11.612;2022-09-09T09:40:21;5.80;;;2.30;;
6280;SDS011;3173;48.204;11.612;2022-09-09T09:47:57;3.93;;;1.60;;
6280;SDS011;3173;48.204;11.612;2022-09-09T09:50:24;6.00;;;1.70;;
6280;SDS011;3173;48.204;11.612;2022-09-09T09:52:55;5.30;;;1.73;;
6280;SDS011;3173;48.204;11.612;2022-09-09T09:55:28;2.43;;;1.70;;
6280;SDS011;3173;48.204;11.612;2022-09-09T09:58:03;4.53;;;2.03;;
6280;SDS011;3173;48.204;11.612;2022-09-09T10:00:32;6.97;;;2.20;;
6280;SDS011;3173;48.204;11.612;2022-09-09T10:03:00;3.50;;;1.80;;
6280;SDS011;3173;48.204;11.612;2022-09-09T10:05:28;3.33;;;2.00;;
6280;SDS011;3173;48.204;11.612;2022-09-09T10:08:05;2.90;;;1.60;;
6280;SDS011;3173;48.204;11.612;2022-09-09T10:13:29;4.10;;;1.50;;
6280;SDS011;3173;48.204;11.612;2022-09-09T10:28:58;6.40;;;1.47;;
6280;SDS011;3173;48.204;11.612;2022-09-09T10:37:06;2.20;;;1.00;;
6280;SDS011;3173;48.204;11.612;2022-09-09T10:39:48;4.83;;;1.10;;
6280;SDS011;3173;48.204;11.612;2022-09-09T10:42:18;2.03;;;1.20;;
6280;SDS011;3173;48.204;11.612;2022-09-09T10:50:18;3.57;;;1.10;;
6280;SDS011;3173;48.204;11.612;2022-09-09T10:55:41;3.33;;;1.10;;
6280;SDS011;3173;48.204;11.612;2022-09-09T10:58:20;2.23;;;1.20;;
6280;SDS011;3173;48.204;11.612;2022-09-09T11:00:53;4.30;;;1.07;;
6280;SDS011;3173;48.204;11.612;2022-09-09T11:03:26;1.63;;;0.90;;
6280;SDS011;3173;48.204;11.612;2022-09-09T11:06:00;2.73;;;1.00;;
6280;SDS011;3173;48.204;11.612;2022-09-09T11:08:31;3.17;;;1.10;;
6280;SDS011;3173;48.204;11.612;2022-09-09T11:11:04;1.30;;;0.90;;
6280;SDS011;3173;48.204;11.612;2022-09-09T11:13:43;3.13;;;1.10;;
6280;SDS011;3173;48.204;11.612;2022-09-09T11:18:56;1.60;;;1.00;;
6280;SDS011;3173;48.204;11.612;2022-09-09T11:21:37;3.43;;;1.23;;
6280;SDS011;3173;48.204;11.612;2022-09-09T11:24:12;13.93;;;1.33;;
6280;SDS011;3173;48.204;11.612;2022-09-09T11:27:06;4.60;;;0.90;;
6280;SDS011;3173;48.204;11.612;2022-09-09T11:40:40;1.80;;;0.70;;
6280;SDS011;3173;48.204;11.612;2022-09-09T11:45:39;1.20;;;0.80;;
6280;SDS011;3173;48.204;11.612;2022-09-09T11:48:21;1.20;;;0.70;;
6280;SDS011;3173;48.204;11.612;2022-09-09T11:53:30;2.30;;;0.70;;
6280;SDS011;3173;48.204;11.612;2022-09-09T11:56:03;1.27;;;0.50;;
6280;SDS011;3173;48.204;11.612;2022-09-09T11:58:38;1.93;;;0.77;;
6280;SDS011;3173;48.204;11.612;2022-09-09T12:01:15;1.37;;;0.80;;
6280;SDS011;3173;48.204;11.612;2022-09-09T12:03:48;1.50;;;0.70;;
6280;SDS011;3173;48.204;11.612;2022-09-09T12:06:24;2.20;;;0.60;;
6280;SDS011;3173;48.204;11.612;2022-09-09T12:08:58;1.17;;;0.73;;
6280;SDS011;3173;48.204;11.612;2022-09-09T12:11:35;1.10;;;0.60;;
6280;SDS011;3173;48.204;11.612;2022-09-09T12:14:02;2.10;;;0.77;;
6280;SDS011;3173;48.204;11.612;2022-09-09T12:16:35;0.90;;;0.60;;
6280;SDS011;3173;48.204;11.612;2022-09-09T12:21:48;2.93;;;0.70;;
6280;SDS011;3173;48.204;11.612;2022-09-09T12:24:35;6.87;;;0.90;;
6280;SDS011;3173;48.204;11.612;2022-09-09T12:27:20;2.63;;;0.80;;
6280;SDS011;3173;48.204;11.612;2022-09-09T12:30:07;1.93;;;0.73;;
6280;SDS011;3173;48.204;11.612;2022-09-09T12:32:36;1.00;;;0.70;;
6280;SDS011;3173;48.204;11.612;2022-09-09T12:35:03;4.10;;;0.80;;
6280;SDS011;3173;48.204;11.612;2022-09-09T12:37:35;1.83;;;0.80;;
6280;SDS011;3173;48.204;11.612;2022-09-09T12:42:46;2.50;;;0.90;;
6280;SDS011;3173;48.204;11.612;2022-09-09T12:45:16;2.70;;;0.70;;
6280;SDS011;3173;48.204;11.612;2022-09-09T12:50:22;4.70;;;0.80;;
6280;SDS011;3173;48.204;11.612;2022-09-09T12:52:50;2.30;;;1.10;;
6280;SDS011;3173;48.204;11.612;2022-09-09T12:55:24;1.53;;;0.70;;
6280;SDS011;3173;48.204;11.612;2022-09-09T12:57:51;2.87;;;0.70;;
6280;SDS011;3173;48.204;11.612;2022-09-09T13:00:19;4.70;;;0.77;;
6280;SDS011;3173;48.204;11.612;2022-09-09T13:02:47;2.13;;;0.90;;
6280;SDS011;3173;48.204;11.612;2022-09-09T13:05:18;1.73;;;0.70;;
6280;SDS011;3173;48.204;11.612;2022-09-09T13:07:44;2.03;;;0.80;;
6280;SDS011;3173;48.204;11.612;2022-09-09T13:10:11;1.60;;;0.90;;
6280;SDS011;3173;48.204;11.612;2022-09-09T13:12:37;3.63;;;0.70;;
6280;SDS011;3173;48.204;11.612;2022-09-09T13:15:03;3.13;;;0.80;;
6280;SDS011;3173;48.204;11.612;2022-09-09T13:17:30;3.27;;;0.80;;
6280;SDS011;3173;48.204;11.612;2022-09-09T13:19:56;2.63;;;0.70;;
6280;SDS011;3173;48.204;11.612;2022-09-09T13:22:35;1.53;;;0.67;;
6280;SDS011;3173;48.204;11.612;2022-09-09T13:27:41;1.87;;;0.70;;
6280;SDS011;3173;48.204;11.612;2022-09-09T13:32:59;3.33;;;0.70;;
6280;SDS011;3173;48.204;11.612;2022-09-09T13:35:26;2.60;;;0.70;;
6280;SDS011;3173;48.204;11.612;2022-09-09T13:37:52;2.33;;;0.70;;
6280;SDS011;3173;48.204;11.612;2022-09-09T13:40:19;1.87;;;1.07;;
6280;SDS011;3173;48.204;11.612;2022-09-09T13:42:47;2.03;;;0.90;;
6280;SDS011;3173;48.204;11.612;2022-09-09T13:45:19;2.50;;;0.80;;
6280;SDS011;3173;48.204;11.612;2022-09-09T13:47:48;1.53;;;0.60;;
6280;SDS011;3173;48.204;11.612;2022-09-09T13:52:55;1.27;;;0.60;;
6280;SDS011;3173;48.204;11.612;2022-09-09T13:55:25;2.90;;;0.80;;
6280;SDS011;3173;48.204;11.612;2022-09-09T13:57:58;1.97;;;0.70;;
6280;SDS011;3173;48.204;11.612;2022-09-09T14:00:26;3.33;;;0.97;;
6280;SDS011;3173;48.204;11.612;2022-09-09T14:02:54;0.90;;;0.60;;
6280;SDS011;3173;48.204;11.612;2022-09-09T14:05:20;1.20;;;0.70;;
6280;SDS011;3173;48.204;11.612;2022-09-09T14:07:47;1.10;;;0.67;;
6280;SDS011;3173;48.204;11.612;2022-09-09T14:10:14;3.07;;;0.70;;
6280;SDS011;3173;48.204;11.612;2022-09-09T14:12:40;1.50;;;0.60;;
6280;SDS011;3173;48.204;11.612;2022-09-09T14:15:06;1.73;;;0.80;;
6280;SDS011;3173;48.204;11.612;2022-09-09T14:17:33;1.40;;;0.60;;
6280;SDS011;3173;48.204;11.612;2022-09-09T14:20:04;1.47;;;0.80;;
6280;SDS011;3173;48.204;11.612;2022-09-09T14:22:34;1.90;;;0.70;;
6280;SDS011;3173;48.204;11.612;2022-09-09T14:25:01;1.83;;;0.70;;
6280;SDS011;3173;48.204;11.612;2022-09-09T14:27:27;3.00;;;0.70;;
6280;SDS011;3173;48.204;11.612;2022-09-09T14:29:53;3.23;;;0.80;;
6280;SDS011;3173;48.204;11.612;2022-09-09T14:32:19;1.87;;;0.80;;
6280;SDS011;3173;48.204;11.612;2022-09-09T14:34:45;2.77;;;0.80;;
6280;SDS011;3173;48.204;11.612;2022-09-09T14:37:10;1.10;;;0.70;;
6280;SDS011;3173;48.204;11.612;2022-09-09T14:39:36;5.60;;;1.33;;
6280;SDS011;3173;48.204;11.612;2022-09-09T14:42:02;2.30;;;0.80;;
6280;SDS011;3173;48.204;11.612;2022-09-09T14:44:27;1.00;;;0.60;;
6280;SDS011;3173;48.204;11.612;2022-09-09T14:46:53;2.23;;;0.70;;
6280;SDS011;3173;48.204;11.612;2022-09-09T14:49:19;1.90;;;0.70;;
6280;SDS011;3173;48.204;11.612;2022-09-09T14:51:45;2.60;;;0.80;;
6280;SDS011;3173;48.204;11.612;2022-09-09T14:54:11;2.00;;;1.00;;
6280;SDS011;3173;48.204;11.612;2022-09-09T14:56:36;1.73;;;0.80;;
6280;SDS011;3173;48.204;11.612;2022-09-09T14:59:02;3.20;;;0.70;;
6280;SDS011;3173;48.204;11.612;2022-09-09T15:01:29;2.00;;;0.80;;
6280;SDS011;3173;48.204;11.612;2022-09-09T15:03:57;3.53;;;0.80;;
6280;SDS011;3173;48.204;11.612;2022-09-09T15:06:25;5.00;;;1.00;;
6280;SDS011;3173;48.204;11.612;2022-09-09T15:08:52;1.00;;;0.70;;
6280;SDS011;3173;48.204;11.612;2022-09-09T15:11:18;3.03;;;0.80;;
6280;SDS011;3173;48.204;11.612;2022-09-09T15:13:45;3.13;;;0.90;;
6280;SDS011;3173;48.204;11.612;2022-09-09T15:16:13;3.33;;;0.77;;
6280;SDS011;3173;48.204;11.612;2022-09-09T15:18:40;2.90;;;0.80;;
6280;SDS011;3173;48.204;11.612;2022-09-09T15:21:08;2.77;;;0.90;;
6280;SDS011;3173;48.204;11.612;2022-09-09T15:23:35;4.50;;;0.97;;
6280;SDS011;3173;48.204;11.612;2022-09-09T15:26:01;5.80;;;1.27;;
6280;SDS011;3173;48.204;11.612;2022-09-09T15:28:28;3.87;;;1.00;;
6280;SDS011;3173;48.204;11.612;2022-09-09T15:30:54;2.80;;;1.00;;
6280;SDS011;3173;48.204;11.612;2022-09-09T15:33:20;2.93;;;1.33;;
6280;SDS011;3173;48.204;11.612;2022-09-09T15:35:47;5.50;;;1.00;;
6280;SDS011;3173;48.204;11.612;2022-09-09T15:38:13;3.90;;;0.80;;
6280;SDS011;3173;48.204;11.612;2022-09-09T15:40:41;3.60;;;1.10;;
6280;SDS011;3173;48.204;11.612;2022-09-09T15:43:07;3.90;;;1.07;;
6280;SDS011;3173;48.204;11.612;2022-09-09T15:45:34;4.90;;;1.20;;
6280;SDS011;3173;48.204;11.612;2022-09-09T15:48:01;4.80;;;0.80;;
6280;SDS011;3173;48.204;11.612;2022-09-09T15:50:27;3.40;;;0.90;;
6280;SDS011;3173;48.204;11.612;2022-09-09T15:52:54;3.80;;;0.77;;
6280;SDS011;3173;48.204;11.612;2022-09-09T15:55:20;4.13;;;1.33;;
6280;SDS011;3173;48.204;11.612;2022-09-09T15:57:46;2.40;;;0.73;;
6280;SDS011;3173;48.204;11.612;2022-09-09T16:00:12;2.30;;;0.77;;
6280;SDS011;3173;48.204;11.612;2022-09-09T16:02:38;4.10;;;0.70;;
6280;SDS011;3173;48.204;11.612;2022-09-09T16:05:04;4.87;;;0.80;;
6280;SDS011;3173;48.204;11.612;2022-09-09T16:07:30;3.67;;;0.77;;
6280;SDS011;3173;48.204;11.612;2022-09-09T16:09:56;5.80;;;1.57;;
6280;SDS011;3173;48.204;11.612;2022-09-09T16:12:21;1.97;;;0.80;;
6280;SDS011;3173;48.204;11.612;2022-09-09T16:14:47;3.00;;;0.90;;
6280;SDS011;3173;48.204;11.612;2022-09-09T16:17:12;1.77;;;0.77;;
6280;SDS011;3173;48.204;11.612;2022-09-09T16:19:39;2.63;;;0.70;;
6280;SDS011;3173;48.204;11.612;2022-09-09T16:22:05;5.70;;;1.17;;
6280;SDS011;3173;48.204;11.612;2022-09-09T16:24:31;1.60;;;0.80;;
6280;SDS011;3173;48.204;11.612;2022-09-09T16:26:58;2.93;;;0.90;;
6280;SDS011;3173;48.204;11.612;2022-09-09T16:29:23;2.67;;;0.80;;
6280;SDS011;3173;48.204;11.612;2022-09-09T16:31:52;2.23;;;0.80;;
6280;SDS011;3173;48.204;11.612;2022-09-09T16:34:18;2.00;;;0.70;;
6280;SDS011;3173;48.204;11.612;2022-09-09T16:36:45;2.70;;;0.90;;
6280;SDS011;3173;48.204;11.612;2022-09-09T16:39:16;4.73;;;0.90;;
6280;SDS011;3173;48.204;11.612;2022-09-09T16:41:43;5.30;;;1.10;;
6280;SDS011;3173;48.204;11.612;2022-09-09T16:44:10;4.63;;;1.10;;
6280;SDS011;3173;48.204;11.612;2022-09-09T16:46:38;3.47;;;0.93;;
6280;SDS011;3173;48.204;11.612;2022-09-09T16:49:07;2.60;;;0.90;;
6280;SDS011;3173;48.204;11.612;2022-09-09T16:51:35;1.30;;;0.80;;
6280;SDS011;3173;48.204;11.612;2022-09-09T16:54:03;2.73;;;0.90;;
6280;SDS011;3173;48.204;11.612;2022-09-09T16:56:31;1.50;;;0.63;;
6280;SDS011;3173;48.204;11.612;2022-09-09T16:59:00;1.83;;;0.80;;
6280;SDS011;3173;48.204;11.612;2022-09-09T17:01:27;3.70;;;1.07;;
6280;SDS011;3173;48.204;11.612;2022-09-09T17:03:59;2.73;;;0.80;;
6280;SDS011;3173;48.204;11.612;2022-09-09T17:06:26;3.57;;;0.83;;
6280;SDS011;3173;48.204;11.612;2022-09-09T17:08:58;1.43;;;0.97;;
6280;SDS011;3173;48.204;11.612;2022-09-09T17:11:28;2.30;;;0.70;;
6280;SDS011;3173;48.204;11.612;2022-09-09T17:13:54;7.97;;;1.40;;
6280;SDS011;3173;48.204;11.612;2022-09-09T17:16:21;3.67;;;0.80;;
6280;SDS011;3173;48.204;11.612;2022-09-09T17:18:49;1.13;;;0.67;;
6280;SDS011;3173;48.204;11.612;2022-09-09T17:21:16;3.10;;;0.83;;
6280;SDS011;3173;48.204;11.612;2022-09-09T17:23:43;1.20;;;0.70;;
6280;SDS011;3173;48.204;11.612;2022-09-09T17:26:10;2.60;;;0.73;;
6280;SDS011;3173;48.204;11.612;2022-09-09T17:28:38;6.40;;;0.83;;
6280;SDS011;3173;48.204;11.612;2022-09-09T17:31:05;4.90;;;1.00;;
6280;SDS011;3173;48.204;11.612;2022-09-09T17:33:33;2.37;;;1.60;;
6280;SDS011;3173;48.204;11.612;2022-09-09T17:36:02;2.20;;;0.90;;